createdAt,value
2017-07-14T00:00:16.808Z,0
2017-07-14T00:01:17.121Z,0
2017-07-14T00:02:16.444Z,0
2017-07-14T00:03:17.079Z,0
2017-07-14T00:04:17.067Z,0
2017-07-14T00:05:17.397Z,0
2017-07-14T00:06:16.799Z,0
2017-07-14T00:07:17.352Z,0
2017-07-14T00:08:16.694Z,0
2017-07-14T00:09:17.005Z,0
2017-07-14T00:10:16.988Z,0
2017-07-14T00:11:16.649Z,0
2017-07-14T00:12:16.315Z,0
2017-07-14T00:13:16.983Z,0
2017-07-14T00:14:16.938Z,0
2017-07-14T00:15:16.604Z,0
2017-07-14T00:16:16.587Z,0
2017-07-14T00:17:16.579Z,0
2017-07-14T00:18:16.917Z,0
2017-07-14T00:19:16.871Z,0
2017-07-14T00:20:16.852Z,0
2017-07-14T00:21:16.197Z,0
2017-07-14T00:22:16.824Z,0
2017-07-14T00:23:17.145Z,0
2017-07-14T00:24:16.475Z,0
2017-07-14T00:25:16.467Z,0
2017-07-14T00:26:17.098Z,0
2017-07-14T00:27:16.439Z,0
2017-07-14T00:28:16.427Z,0
2017-07-14T00:29:17.054Z,0
2017-07-14T00:30:16.404Z,0
2017-07-14T00:31:17.069Z,0
2017-07-14T00:32:16.374Z,0
2017-07-14T00:33:16.683Z,0
2017-07-14T00:34:16.356Z,0
2017-07-14T00:35:16.657Z,0
2017-07-14T00:36:16.647Z,0
2017-07-14T00:37:15.987Z,0
2017-07-14T00:38:16.627Z,0
2017-07-14T00:39:16.927Z,0
2017-07-14T00:40:15.944Z,0
2017-07-14T00:41:16.257Z,0
2017-07-14T00:42:16.241Z,0
2017-07-14T00:43:16.602Z,0
2017-07-14T00:44:16.534Z,0
2017-07-14T00:45:16.527Z,0
2017-07-14T00:46:16.185Z,0
2017-07-14T00:47:16.498Z,0
2017-07-14T00:48:16.481Z,0
2017-07-14T00:49:16.469Z,0
2017-07-14T00:50:16.492Z,0
2017-07-14T00:51:16.443Z,0
2017-07-14T00:52:16.427Z,0
2017-07-14T00:53:16.422Z,0
2017-07-14T00:54:16.401Z,0
2017-07-14T00:55:16.389Z,0
2017-07-14T00:56:16.380Z,0
2017-07-14T00:57:16.043Z,0
2017-07-14T00:58:16.059Z,0
2017-07-14T00:59:16.660Z,0
2017-07-14T01:00:16.971Z,0
2017-07-14T01:01:15.988Z,0
2017-07-14T01:02:16.623Z,0
2017-07-14T01:03:16.288Z,0
2017-07-14T01:04:16.590Z,0
2017-07-14T01:05:16.582Z,0
2017-07-14T01:06:16.567Z,0
2017-07-14T01:07:16.234Z,0
2017-07-14T01:08:16.539Z,0
2017-07-14T01:09:15.610Z,0
2017-07-14T01:10:16.521Z,0
2017-07-14T01:11:15.852Z,0
2017-07-14T01:12:16.481Z,0
2017-07-14T01:13:16.151Z,0
2017-07-14T01:14:16.139Z,0
2017-07-14T01:15:16.120Z,0
2017-07-14T01:16:16.107Z,0
2017-07-14T01:17:16.740Z,0
2017-07-14T01:18:15.765Z,0
2017-07-14T01:19:15.755Z,0
2017-07-14T01:20:16.061Z,0
2017-07-14T01:21:16.050Z,0
2017-07-14T01:22:16.020Z,0
2017-07-14T01:23:16.327Z,0
2017-07-14T01:24:15.675Z,0
2017-07-14T01:25:15.991Z,0
2017-07-14T01:26:15.994Z,0
2017-07-14T01:27:15.955Z,0
2017-07-14T01:28:15.621Z,0
2017-07-14T01:29:16.304Z,0
2017-07-14T01:30:16.246Z,0
2017-07-14T01:31:15.258Z,0
2017-07-14T01:32:15.893Z,0
2017-07-14T01:33:15.554Z,0
2017-07-14T01:34:15.865Z,0
2017-07-14T01:35:15.532Z,0
2017-07-14T01:36:15.839Z,0
2017-07-14T01:37:16.151Z,0
2017-07-14T01:38:16.462Z,0
2017-07-14T01:39:15.476Z,0
2017-07-14T01:40:15.790Z,0
2017-07-14T01:41:16.090Z,0
2017-07-14T01:42:15.763Z,0
2017-07-14T01:43:15.420Z,0
2017-07-14T01:44:15.725Z,0
2017-07-14T01:45:15.724Z,0
2017-07-14T01:46:16.023Z,0
2017-07-14T01:47:15.688Z,0
2017-07-14T01:48:15.674Z,0
2017-07-14T01:49:15.661Z,0
2017-07-14T01:50:15.334Z,0
2017-07-14T01:51:15.309Z,0
2017-07-14T01:52:15.301Z,0
2017-07-14T01:53:16.258Z,0
2017-07-14T01:54:15.592Z,0
2017-07-14T01:55:15.256Z,0
2017-07-14T01:56:15.243Z,0
2017-07-14T01:57:15.552Z,0
2017-07-14T01:58:15.565Z,0
2017-07-14T01:59:15.522Z,0
2017-07-14T02:00:15.187Z,0
2017-07-14T02:01:15.178Z,0
2017-07-14T02:02:15.489Z,0
2017-07-14T02:03:15.154Z,0
2017-07-14T02:04:14.816Z,0
2017-07-14T02:08:57.369Z,0
2017-07-14T02:09:07.497Z,0
2017-07-14T02:10:07.479Z,0
2017-07-14T02:11:07.476Z,0
2017-07-14T02:12:06.820Z,0
2017-07-14T02:13:07.434Z,0
2017-07-14T02:14:07.739Z,0
2017-07-14T02:15:06.810Z,0
2017-07-14T02:16:06.757Z,0
2017-07-14T02:17:06.744Z,0
2017-07-14T02:18:07.038Z,0
2017-07-14T02:19:07.032Z,0
2017-07-14T02:20:07.343Z,0
2017-07-14T02:21:07.652Z,0
2017-07-14T02:22:07.351Z,0
2017-07-14T02:23:07.300Z,0
2017-07-14T02:24:06.957Z,0
2017-07-14T02:25:07.277Z,0
2017-07-14T02:26:06.611Z,0
2017-07-14T02:27:06.921Z,0
2017-07-14T02:28:06.913Z,0
2017-07-14T02:29:07.223Z,0
2017-07-14T02:30:07.576Z,0
2017-07-14T02:31:06.873Z,0
2017-07-14T02:32:07.180Z,0
2017-07-14T02:33:06.527Z,0
2017-07-14T02:34:07.148Z,0
2017-07-14T02:35:07.133Z,0
2017-07-14T02:36:06.815Z,0
2017-07-14T02:37:06.792Z,0
2017-07-14T02:38:06.456Z,0
2017-07-14T02:39:07.082Z,0
2017-07-14T02:40:06.751Z,0
2017-07-14T02:41:07.057Z,0
2017-07-14T02:42:07.376Z,0
2017-07-14T02:43:06.381Z,0
2017-07-14T02:44:07.082Z,0
2017-07-14T02:45:06.678Z,0
2017-07-14T02:46:06.663Z,0
2017-07-14T02:47:06.327Z,0
2017-07-14T02:48:06.954Z,0
2017-07-14T02:49:06.624Z,0
2017-07-14T02:50:06.931Z,0
2017-07-14T02:51:06.928Z,0
2017-07-14T02:52:06.582Z,0
2017-07-14T02:53:06.890Z,0
2017-07-14T02:54:06.229Z,0
2017-07-14T02:55:06.548Z,0
2017-07-14T02:56:06.853Z,0
2017-07-14T02:57:06.516Z,0
2017-07-14T02:58:07.146Z,0
2017-07-14T02:59:06.488Z,0
2017-07-14T03:00:06.798Z,0
2017-07-14T03:01:07.103Z,0
2017-07-14T03:02:05.798Z,0
2017-07-14T03:03:06.440Z,0
2017-07-14T03:04:06.422Z,0
2017-07-14T03:05:06.404Z,0
2017-07-14T03:06:05.745Z,0
2017-07-14T03:07:06.716Z,0
2017-07-14T03:08:07.009Z,0
2017-07-14T03:09:06.350Z,0
2017-07-14T03:10:06.329Z,0
2017-07-14T03:11:06.964Z,0
2017-07-14T03:12:06.947Z,0
2017-07-14T03:13:06.293Z,0
2017-07-14T03:14:06.282Z,0
2017-07-14T03:15:06.581Z,0
2017-07-14T03:16:06.241Z,0
2017-07-14T03:17:06.561Z,0
2017-07-14T03:18:05.896Z,0
2017-07-14T03:19:06.206Z,0
2017-07-14T03:20:06.200Z,0
2017-07-14T03:21:06.177Z,0
2017-07-14T03:22:06.493Z,0
2017-07-14T03:23:06.158Z,0
2017-07-14T03:24:06.152Z,0
2017-07-14T03:25:05.798Z,0
2017-07-14T03:26:06.111Z,0
2017-07-14T03:27:06.748Z,0
2017-07-14T03:28:05.770Z,0
2017-07-14T03:29:05.745Z,0
2017-07-14T03:30:06.418Z,0
2017-07-14T03:31:06.364Z,0
2017-07-14T03:32:05.704Z,0
2017-07-14T03:33:06.002Z,5
2017-07-14T03:34:05.679Z,5
2017-07-14T03:35:06.298Z,5
2017-07-14T03:36:05.968Z,5
2017-07-14T03:37:05.952Z,5
2017-07-14T03:38:05.938Z,5
2017-07-14T03:39:06.567Z,5
2017-07-14T03:40:06.552Z,5
2017-07-14T03:41:06.215Z,5
2017-07-14T03:42:05.556Z,5
2017-07-14T03:43:06.190Z,5
2017-07-14T03:44:06.498Z,5
2017-07-14T03:45:05.837Z,5
2017-07-14T03:46:06.189Z,10
2017-07-14T03:47:05.814Z,10
2017-07-14T03:48:05.799Z,10
2017-07-14T03:49:05.778Z,10
2017-07-14T03:50:05.766Z,10
2017-07-14T03:51:06.390Z,10
2017-07-14T03:52:06.060Z,10
2017-07-14T03:53:05.736Z,10
2017-07-14T03:54:06.033Z,10
2017-07-14T03:55:06.017Z,15
2017-07-14T03:56:06.014Z,15
2017-07-14T03:57:05.666Z,15
2017-07-14T03:58:05.978Z,15
2017-07-14T03:59:05.639Z,15
2017-07-14T04:00:05.299Z,15
2017-07-14T04:01:05.609Z,20
2017-07-14T04:02:05.606Z,20
2017-07-14T04:03:04.940Z,20
2017-07-14T04:04:05.568Z,20
2017-07-14T04:05:05.234Z,20
2017-07-14T04:06:05.544Z,20
2017-07-14T04:07:06.402Z,20
2017-07-14T04:08:05.834Z,20
2017-07-14T04:09:05.836Z,20
2017-07-14T04:10:05.507Z,20
2017-07-14T04:11:05.478Z,25
2017-07-14T04:12:05.161Z,25
2017-07-14T04:13:05.121Z,25
2017-07-14T04:14:05.101Z,25
2017-07-14T04:15:05.736Z,25
2017-07-14T04:16:05.084Z,25
2017-07-14T04:17:05.052Z,25
2017-07-14T04:18:05.723Z,25
2017-07-14T04:19:04.709Z,25
2017-07-14T04:20:05.661Z,25
2017-07-14T04:21:05.642Z,25
2017-07-14T04:22:04.660Z,30
2017-07-14T04:23:05.608Z,30
2017-07-14T04:24:05.277Z,30
2017-07-14T04:25:05.262Z,30
2017-07-14T04:26:05.247Z,30
2017-07-14T04:27:05.288Z,30
2017-07-14T04:28:04.905Z,35
2017-07-14T04:29:05.576Z,35
2017-07-14T04:30:05.195Z,35
2017-07-14T04:31:05.177Z,35
2017-07-14T04:32:05.159Z,35
2017-07-14T04:33:04.830Z,35
2017-07-14T04:34:05.135Z,35
2017-07-14T04:35:05.117Z,35
2017-07-14T04:36:04.781Z,40
2017-07-14T04:37:05.096Z,40
2017-07-14T04:38:05.082Z,40
2017-07-14T04:39:05.389Z,40
2017-07-14T04:40:05.395Z,40
2017-07-14T04:41:05.689Z,40
2017-07-14T04:42:04.701Z,40
2017-07-14T04:43:04.679Z,40
2017-07-14T04:44:04.674Z,40
2017-07-14T04:45:04.973Z,45
2017-07-14T04:46:04.961Z,45
2017-07-14T04:47:05.270Z,45
2017-07-14T04:48:04.981Z,45
2017-07-14T04:49:05.581Z,45
2017-07-14T04:50:05.232Z,45
2017-07-14T04:51:04.567Z,45
2017-07-14T04:52:05.198Z,45
2017-07-14T04:53:04.542Z,45
2017-07-14T04:54:05.197Z,50
2017-07-14T04:55:04.515Z,50
2017-07-14T04:56:04.822Z,50
2017-07-14T04:57:04.810Z,50
2017-07-14T04:58:04.467Z,50
2017-07-14T04:59:04.781Z,50
2017-07-14T05:00:05.414Z,50
2017-07-14T05:01:05.394Z,55
2017-07-14T05:02:04.416Z,55
2017-07-14T05:03:05.044Z,55
2017-07-14T05:04:04.717Z,55
2017-07-14T05:05:04.373Z,55
2017-07-14T05:06:04.682Z,55
2017-07-14T05:07:04.669Z,60
2017-07-14T05:08:04.653Z,60
2017-07-14T05:09:04.315Z,60
2017-07-14T05:10:04.306Z,60
2017-07-14T05:11:04.603Z,60
2017-07-14T05:12:04.325Z,65
2017-07-14T05:13:04.581Z,65
2017-07-14T05:14:04.573Z,60
2017-07-14T05:15:04.555Z,65
2017-07-14T05:16:04.568Z,65
2017-07-14T05:17:04.535Z,70
2017-07-14T05:18:04.841Z,70
2017-07-14T05:19:04.176Z,75
2017-07-14T05:20:04.814Z,80
2017-07-14T05:21:04.481Z,85
2017-07-14T05:22:04.465Z,85
2017-07-14T05:23:04.769Z,85
2017-07-14T05:24:04.110Z,85
2017-07-14T05:25:04.135Z,85
2017-07-14T05:26:04.414Z,85
2017-07-14T05:27:04.390Z,80
2017-07-14T05:28:04.059Z,75
2017-07-14T05:29:04.048Z,75
2017-07-14T05:30:04.690Z,70
2017-07-14T05:31:04.663Z,70
2017-07-14T05:32:03.686Z,70
2017-07-14T05:33:04.638Z,75
2017-07-14T05:34:03.976Z,75
2017-07-14T05:35:04.285Z,75
2017-07-14T05:36:04.603Z,75
2017-07-14T05:37:04.903Z,80
2017-07-14T05:38:03.617Z,80
2017-07-14T05:39:04.552Z,80
2017-07-14T05:40:04.550Z,85
2017-07-14T05:41:04.203Z,85
2017-07-14T05:42:04.197Z,85
2017-07-14T05:43:03.859Z,85
2017-07-14T05:44:04.808Z,90
2017-07-14T05:45:04.158Z,90
2017-07-14T05:46:04.148Z,90
2017-07-14T05:47:04.128Z,90
2017-07-14T05:48:04.154Z,95
2017-07-14T05:49:04.103Z,95
2017-07-14T05:50:03.770Z,95
2017-07-14T05:51:04.079Z,95
2017-07-14T05:52:04.065Z,100
2017-07-14T05:53:04.699Z,100
2017-07-14T05:54:04.359Z,100
2017-07-14T05:55:04.674Z,95
2017-07-14T05:56:04.015Z,95
2017-07-14T05:57:04.007Z,95
2017-07-14T05:58:03.990Z,95
2017-07-14T05:59:04.302Z,90
2017-07-14T06:00:03.643Z,90
2017-07-14T06:01:03.955Z,90
2017-07-14T06:02:03.944Z,90
2017-07-14T06:03:04.247Z,90
2017-07-14T06:04:04.247Z,90
2017-07-14T06:05:03.267Z,85
2017-07-14T06:06:03.887Z,85
2017-07-14T06:07:04.087Z,85
2017-07-14T06:08:04.188Z,80
2017-07-14T06:09:03.864Z,80
2017-07-14T06:10:04.160Z,80
2017-07-14T06:11:03.191Z,80
2017-07-14T06:12:04.166Z,80
2017-07-14T06:13:03.809Z,80
2017-07-14T06:14:03.792Z,100
2017-07-14T06:15:03.457Z,185
2017-07-14T06:16:03.769Z,310
2017-07-14T06:17:04.084Z,365
2017-07-14T06:18:04.082Z,480
2017-07-14T06:19:03.416Z,605
2017-07-14T06:20:03.726Z,565
2017-07-14T06:21:04.034Z,575
2017-07-14T06:22:03.055Z,555
2017-07-14T06:23:03.044Z,530
2017-07-14T06:24:03.990Z,380
2017-07-14T06:25:03.347Z,175
2017-07-14T06:26:03.652Z,100
2017-07-14T06:27:03.320Z,100
2017-07-14T06:28:03.313Z,100
2017-07-14T06:29:03.652Z,100
2017-07-14T06:30:03.932Z,105
2017-07-14T06:31:03.608Z,105
2017-07-14T06:32:03.599Z,105
2017-07-14T06:33:03.581Z,105
2017-07-14T06:34:03.885Z,105
2017-07-14T06:35:03.877Z,105
2017-07-14T06:36:03.870Z,105
2017-07-14T06:37:03.540Z,105
2017-07-14T06:38:02.882Z,105
2017-07-14T06:39:03.511Z,110
2017-07-14T06:40:03.413Z,110
2017-07-14T06:41:03.491Z,110
2017-07-14T06:42:03.479Z,110
2017-07-14T06:43:03.792Z,110
2017-07-14T06:44:03.140Z,110
2017-07-14T06:45:03.448Z,110
2017-07-14T06:46:03.123Z,110
2017-07-14T06:47:03.753Z,110
2017-07-14T06:48:03.418Z,110
2017-07-14T06:49:03.083Z,110
2017-07-14T06:50:03.724Z,115
2017-07-14T06:51:04.030Z,115
2017-07-14T06:52:03.050Z,120
2017-07-14T06:53:03.365Z,115
2017-07-14T06:54:03.350Z,120
2017-07-14T06:55:03.343Z,120
2017-07-14T06:56:03.647Z,120
2017-07-14T06:57:03.639Z,125
2017-07-14T06:58:03.303Z,130
2017-07-14T06:59:02.970Z,140
2017-07-14T07:00:02.962Z,145
2017-07-14T07:01:03.591Z,145
2017-07-14T07:02:02.936Z,145
2017-07-14T07:03:02.928Z,140
2017-07-14T07:04:03.237Z,145
2017-07-14T07:05:03.230Z,145
2017-07-14T07:06:03.537Z,140
2017-07-14T07:07:02.565Z,140
2017-07-14T07:08:03.514Z,140
2017-07-14T07:09:03.186Z,145
2017-07-14T07:10:02.847Z,145
2017-07-14T07:11:03.156Z,145
2017-07-14T07:12:03.148Z,145
2017-07-14T07:13:02.866Z,145
2017-07-14T07:14:03.133Z,145
2017-07-14T07:15:03.120Z,140
2017-07-14T07:16:03.147Z,145
2017-07-14T07:17:03.429Z,150
2017-07-14T07:18:02.770Z,155
2017-07-14T07:19:02.793Z,160
2017-07-14T07:20:03.067Z,165
2017-07-14T07:21:03.065Z,160
2017-07-14T07:22:02.723Z,165
2017-07-14T07:23:02.709Z,160
2017-07-14T07:24:03.022Z,150
2017-07-14T07:25:02.365Z,155
2017-07-14T07:26:03.012Z,165
2017-07-14T07:27:02.668Z,170
2017-07-14T07:28:03.032Z,160
2017-07-14T07:29:03.614Z,160
2017-07-14T07:30:03.322Z,165
2017-07-14T07:31:03.300Z,170
2017-07-14T07:32:03.279Z,175
2017-07-14T07:33:02.284Z,175
2017-07-14T07:34:02.915Z,370
2017-07-14T07:35:03.571Z,915
2017-07-14T07:36:03.261Z,930
2017-07-14T07:37:03.222Z,985
2017-07-14T07:38:02.883Z,590
2017-07-14T07:39:02.871Z,775
2017-07-14T07:40:02.542Z,1110
2017-07-14T07:41:02.556Z,830
2017-07-14T07:42:02.853Z,1160
2017-07-14T07:43:02.197Z,1005
2017-07-14T07:44:02.514Z,1015
2017-07-14T07:45:02.178Z,1275
2017-07-14T07:46:02.820Z,1230
2017-07-14T07:47:03.462Z,1250
2017-07-14T07:48:03.453Z,1270
2017-07-14T07:49:03.128Z,1305
2017-07-14T07:50:02.471Z,1350
2017-07-14T07:51:02.476Z,1335
2017-07-14T07:52:02.793Z,1300
2017-07-14T07:53:03.110Z,1370
2017-07-14T07:54:02.782Z,1400
2017-07-14T07:55:02.777Z,1375
2017-07-14T07:56:03.414Z,1375
2017-07-14T07:57:02.765Z,1360
2017-07-14T07:58:03.087Z,1355
2017-07-14T07:59:02.438Z,1385
2017-07-14T08:00:03.226Z,1410
2017-07-14T08:01:02.444Z,1435
2017-07-14T08:02:03.403Z,1395
2017-07-14T08:03:02.749Z,1330
2017-07-14T08:04:02.755Z,1310
2017-07-14T08:05:02.129Z,1205
2017-07-14T08:06:02.421Z,1255
2017-07-14T08:07:02.942Z,1265
2017-07-14T08:08:02.737Z,1320
2017-07-14T08:09:03.060Z,1285
2017-07-14T08:10:03.055Z,1255
2017-07-14T08:11:03.382Z,1290
2017-07-14T08:12:03.055Z,1280
2017-07-14T08:13:02.409Z,1300
2017-07-14T08:14:03.058Z,1425
2017-07-14T08:15:02.733Z,1435
2017-07-14T08:16:03.385Z,1395
2017-07-14T08:17:02.408Z,1330
2017-07-14T08:18:02.730Z,1200
2017-07-14T08:19:02.731Z,1260
2017-07-14T08:20:03.366Z,1395
2017-07-14T08:21:02.730Z,1440
2017-07-14T08:22:03.372Z,1510
2017-07-14T08:23:02.723Z,1535
2017-07-14T08:24:02.401Z,1500
2017-07-14T08:25:03.053Z,1480
2017-07-14T08:26:03.048Z,1455
2017-07-14T08:27:02.401Z,1455
2017-07-14T08:28:02.738Z,1505
2017-07-14T08:29:02.720Z,1605
2017-07-14T08:30:02.399Z,1690
2017-07-14T08:31:03.370Z,1655
2017-07-14T08:32:02.076Z,990
2017-07-14T08:33:02.401Z,1155
2017-07-14T08:34:02.394Z,1160
2017-07-14T08:35:02.077Z,465
2017-07-14T08:36:02.074Z,515
2017-07-14T08:37:02.725Z,630
2017-07-14T08:38:03.042Z,1220
2017-07-14T08:39:03.414Z,850
2017-07-14T08:40:03.043Z,700
2017-07-14T08:41:02.723Z,1665
2017-07-14T08:42:02.403Z,1390
2017-07-14T08:43:03.050Z,1565
2017-07-14T08:44:02.721Z,1585
2017-07-14T08:45:03.046Z,1555
2017-07-14T08:46:02.721Z,1500
2017-07-14T08:47:02.716Z,1515
2017-07-14T08:48:03.040Z,1600
2017-07-14T08:49:03.357Z,1170
2017-07-14T08:50:03.361Z,850
2017-07-14T08:51:02.398Z,575
2017-07-14T08:52:03.390Z,775
2017-07-14T08:53:02.393Z,800
2017-07-14T08:54:03.087Z,525
2017-07-14T08:55:02.065Z,495
2017-07-14T08:56:02.706Z,370
2017-07-14T08:57:02.725Z,360
2017-07-14T08:58:03.025Z,350
2017-07-14T08:59:02.382Z,585
2017-07-14T09:00:02.700Z,895
2017-07-14T09:01:03.348Z,1260
2017-07-14T09:02:02.699Z,570
2017-07-14T09:03:02.697Z,445
2017-07-14T09:04:02.693Z,265
2017-07-14T09:05:03.009Z,260
2017-07-14T09:06:02.690Z,265
2017-07-14T09:07:03.005Z,265
2017-07-14T09:08:02.360Z,325
2017-07-14T09:09:03.375Z,555
2017-07-14T09:10:02.359Z,645
2017-07-14T09:11:02.676Z,390
2017-07-14T09:12:02.036Z,375
2017-07-14T09:13:02.338Z,385
2017-07-14T09:14:02.012Z,450
2017-07-14T09:15:02.994Z,470
2017-07-14T09:16:02.330Z,830
2017-07-14T09:17:02.653Z,940
2017-07-14T09:18:02.647Z,920
2017-07-14T09:19:02.639Z,915
2017-07-14T09:20:02.963Z,890
2017-07-14T09:21:02.640Z,1595
2017-07-14T09:22:02.637Z,1560
2017-07-14T09:23:03.390Z,1625
2017-07-14T09:24:02.636Z,1185
2017-07-14T09:25:02.620Z,1470
2017-07-14T09:26:02.616Z,1470
2017-07-14T09:27:02.669Z,1480
2017-07-14T09:28:02.301Z,1590
2017-07-14T09:29:02.951Z,1675
2017-07-14T09:30:02.341Z,755
2017-07-14T09:31:02.935Z,820
2017-07-14T09:32:02.321Z,1705
2017-07-14T09:33:02.283Z,1415
2017-07-14T09:34:02.606Z,1490
2017-07-14T09:35:02.687Z,1240
2017-07-14T09:36:02.943Z,905
2017-07-14T09:37:02.285Z,295
2017-07-14T09:38:02.934Z,550
2017-07-14T09:39:02.924Z,980
2017-07-14T09:40:02.610Z,415
2017-07-14T09:41:02.923Z,295
2017-07-14T09:42:02.920Z,385
2017-07-14T09:43:01.952Z,545
2017-07-14T09:44:02.597Z,330
2017-07-14T09:45:02.272Z,335
2017-07-14T09:46:02.920Z,280
2017-07-14T09:47:03.247Z,295
2017-07-14T09:48:02.911Z,375
2017-07-14T09:49:02.577Z,530
2017-07-14T09:50:02.286Z,475
2017-07-14T09:51:02.574Z,500
2017-07-14T09:52:02.892Z,395
2017-07-14T09:53:02.573Z,455
2017-07-14T09:54:02.573Z,460
2017-07-14T09:55:02.897Z,605
2017-07-14T09:56:02.892Z,570
2017-07-14T09:57:03.311Z,495
2017-07-14T09:58:03.267Z,560
2017-07-14T09:59:03.100Z,970
2017-07-14T10:00:02.873Z,435
2017-07-14T10:01:02.870Z,490
2017-07-14T10:02:02.865Z,515
2017-07-14T10:03:02.892Z,855
2017-07-14T10:04:03.184Z,690
2017-07-14T10:05:02.910Z,650
2017-07-14T10:06:02.213Z,630
2017-07-14T10:07:02.728Z,555
2017-07-14T10:08:02.250Z,540
2017-07-14T10:09:02.546Z,605
2017-07-14T10:10:02.506Z,335
2017-07-14T10:11:02.818Z,290
2017-07-14T10:12:02.182Z,270
2017-07-14T10:13:02.824Z,295
2017-07-14T10:14:02.273Z,360
2017-07-14T10:15:02.179Z,395
2017-07-14T10:16:02.821Z,460
2017-07-14T10:17:02.184Z,480
2017-07-14T10:18:02.805Z,545
2017-07-14T10:19:02.812Z,550
2017-07-14T10:20:02.552Z,665
2017-07-14T10:21:02.473Z,470
2017-07-14T10:22:02.473Z,410
2017-07-14T10:23:01.812Z,370
2017-07-14T10:24:02.455Z,335
2017-07-14T10:25:02.453Z,310
2017-07-14T10:26:02.129Z,310
2017-07-14T10:27:02.123Z,310
2017-07-14T10:28:02.115Z,325
2017-07-14T10:29:02.125Z,350
2017-07-14T10:30:02.110Z,390
2017-07-14T10:31:01.984Z,470
2017-07-14T10:32:02.431Z,555
2017-07-14T10:33:02.095Z,1230
2017-07-14T10:34:02.414Z,565
2017-07-14T10:35:02.419Z,435
2017-07-14T10:36:01.762Z,340
2017-07-14T10:37:02.728Z,315
2017-07-14T10:38:03.035Z,315
2017-07-14T10:39:02.713Z,350
2017-07-14T10:40:02.070Z,395
2017-07-14T10:41:02.381Z,465
2017-07-14T10:42:02.691Z,520
2017-07-14T10:43:02.385Z,585
2017-07-14T10:44:01.721Z,765
2017-07-14T10:45:02.684Z,825
2017-07-14T10:46:02.688Z,960
2017-07-14T10:47:02.668Z,750
2017-07-14T10:48:02.346Z,460
2017-07-14T10:49:02.337Z,450
2017-07-14T10:50:02.981Z,465
2017-07-14T10:51:02.337Z,525
2017-07-14T10:52:02.002Z,515
2017-07-14T10:53:02.321Z,425
2017-07-14T10:54:02.315Z,420
2017-07-14T10:55:01.991Z,435
2017-07-14T10:56:02.305Z,500
2017-07-14T10:57:02.960Z,470
2017-07-14T10:58:01.654Z,555
2017-07-14T10:59:02.292Z,795
2017-07-14T11:00:02.615Z,680
2017-07-14T11:01:02.613Z,605
2017-07-14T11:02:02.602Z,495
2017-07-14T11:03:02.280Z,530
2017-07-14T11:04:02.271Z,585
2017-07-14T11:05:02.598Z,565
2017-07-14T11:06:02.264Z,790
2017-07-14T11:07:02.261Z,1025
2017-07-14T11:08:02.256Z,755
2017-07-14T11:09:02.245Z,500
2017-07-14T11:10:02.583Z,455
2017-07-14T11:11:02.927Z,435
2017-07-14T11:12:01.911Z,435
2017-07-14T11:13:02.231Z,425
2017-07-14T11:14:02.242Z,415
2017-07-14T11:15:02.552Z,420
2017-07-14T11:16:01.576Z,420
2017-07-14T11:17:02.869Z,415
2017-07-14T11:18:02.540Z,385
2017-07-14T11:19:02.532Z,355
2017-07-14T11:20:02.535Z,345
2017-07-14T11:21:02.571Z,335
2017-07-14T11:22:01.901Z,345
2017-07-14T11:23:01.873Z,365
2017-07-14T11:24:01.542Z,370
2017-07-14T11:25:02.830Z,385
2017-07-14T11:26:02.193Z,385
2017-07-14T11:27:01.874Z,335
2017-07-14T11:28:01.526Z,305
2017-07-14T11:29:01.842Z,290
2017-07-14T11:30:02.491Z,290
2017-07-14T11:31:02.203Z,290
2017-07-14T11:32:02.475Z,295
2017-07-14T11:33:01.823Z,305
2017-07-14T11:34:02.141Z,320
2017-07-14T11:35:01.818Z,320
2017-07-14T11:36:02.473Z,290
2017-07-14T11:37:01.804Z,275
2017-07-14T11:38:01.804Z,260
2017-07-14T11:39:02.113Z,260
2017-07-14T11:40:01.795Z,275
2017-07-14T11:41:02.113Z,290
2017-07-14T11:42:02.113Z,310
2017-07-14T11:43:02.740Z,320
2017-07-14T11:44:02.090Z,325
2017-07-14T11:45:01.782Z,340
2017-07-14T11:46:01.811Z,355
2017-07-14T11:47:02.405Z,360
2017-07-14T11:48:02.718Z,350
2017-07-14T11:49:02.060Z,330
2017-07-14T11:50:02.063Z,305
2017-07-14T11:51:02.369Z,285
2017-07-14T11:52:02.701Z,270
2017-07-14T11:53:02.363Z,255
2017-07-14T11:54:01.720Z,245
2017-07-14T11:55:02.353Z,245
2017-07-14T11:56:02.383Z,250
2017-07-14T11:57:02.344Z,260
2017-07-14T11:58:01.693Z,275
2017-07-14T11:59:02.348Z,290
2017-07-14T12:00:01.682Z,310
2017-07-14T12:01:02.315Z,330
2017-07-14T12:02:02.634Z,350
2017-07-14T12:03:02.317Z,380
2017-07-14T12:04:01.979Z,400
2017-07-14T12:05:02.308Z,445
2017-07-14T12:06:01.971Z,485
2017-07-14T12:07:02.172Z,475
2017-07-14T12:08:02.277Z,435
2017-07-14T12:09:02.278Z,400
2017-07-14T12:10:01.626Z,360
2017-07-14T12:11:01.620Z,355
2017-07-14T12:12:01.935Z,370
2017-07-14T12:13:02.265Z,395
2017-07-14T12:14:01.607Z,425
2017-07-14T12:15:01.597Z,455
2017-07-14T12:16:01.915Z,435
2017-07-14T12:17:01.912Z,425
2017-07-14T12:18:02.233Z,395
2017-07-14T12:19:01.930Z,350
2017-07-14T12:20:01.896Z,315
2017-07-14T12:21:02.205Z,290
2017-07-14T12:22:01.887Z,275
2017-07-14T12:23:01.877Z,250
2017-07-14T12:24:01.548Z,225
2017-07-14T12:25:01.869Z,215
2017-07-14T12:26:01.860Z,205
2017-07-14T12:27:01.530Z,205
2017-07-14T12:28:01.525Z,205
2017-07-14T12:29:01.847Z,215
2017-07-14T12:30:02.162Z,205
2017-07-14T12:31:01.508Z,190
2017-07-14T12:32:01.223Z,180
2017-07-14T12:33:02.470Z,175
2017-07-14T12:34:01.815Z,180
2017-07-14T12:35:02.143Z,185
2017-07-14T12:36:02.126Z,190
2017-07-14T12:37:01.813Z,190
2017-07-14T12:38:02.139Z,190
2017-07-14T12:39:01.471Z,190
2017-07-14T12:40:02.107Z,175
2017-07-14T12:41:01.775Z,165
2017-07-14T12:42:02.139Z,160
2017-07-14T12:43:01.766Z,165
2017-07-14T12:44:01.764Z,180
2017-07-14T12:45:02.402Z,185
2017-07-14T12:46:02.074Z,190
2017-07-14T12:47:01.745Z,190
2017-07-14T12:48:01.732Z,195
2017-07-14T12:49:01.400Z,200
2017-07-14T12:50:02.051Z,190
2017-07-14T12:51:02.359Z,190
2017-07-14T12:52:01.710Z,195
2017-07-14T12:53:01.056Z,200
2017-07-14T12:54:01.374Z,210
2017-07-14T12:55:01.687Z,220
2017-07-14T12:56:01.041Z,225
2017-07-14T12:57:01.685Z,225
2017-07-14T12:58:01.666Z,220
2017-07-14T12:59:01.990Z,220
2017-07-14T13:00:01.675Z,230
2017-07-14T13:01:01.008Z,245
2017-07-14T13:02:01.646Z,260
2017-07-14T13:03:01.322Z,275
2017-07-14T13:04:00.985Z,290
2017-07-14T13:05:01.629Z,305
2017-07-14T13:06:01.618Z,330
2017-07-14T13:07:01.925Z,350
2017-07-14T13:08:01.926Z,345
2017-07-14T13:09:01.277Z,340
2017-07-14T13:10:01.903Z,320
2017-07-14T13:11:00.939Z,290
2017-07-14T13:12:01.584Z,270
2017-07-14T13:13:01.250Z,265
2017-07-14T13:14:01.245Z,265
2017-07-14T13:15:01.881Z,280
2017-07-14T13:16:01.876Z,310
2017-07-14T13:17:01.558Z,335
2017-07-14T13:18:01.546Z,375
2017-07-14T13:19:01.858Z,435
2017-07-14T13:20:01.265Z,570
2017-07-14T13:21:01.211Z,725
2017-07-14T13:22:01.571Z,940
2017-07-14T13:23:01.513Z,550
2017-07-14T13:24:01.829Z,485
2017-07-14T13:25:01.500Z,450
2017-07-14T13:26:01.825Z,440
2017-07-14T13:27:01.807Z,415
2017-07-14T13:28:00.845Z,400
2017-07-14T13:29:01.477Z,390
2017-07-14T13:30:01.482Z,395
2017-07-14T13:31:01.143Z,390
2017-07-14T13:32:01.804Z,315
2017-07-14T13:33:01.460Z,240
2017-07-14T13:34:01.134Z,200
2017-07-14T13:35:01.773Z,180
2017-07-14T13:36:01.124Z,155
2017-07-14T13:37:01.804Z,135
2017-07-14T13:38:01.436Z,135
2017-07-14T13:39:01.098Z,130
2017-07-14T13:40:01.097Z,120
2017-07-14T13:41:01.407Z,110
2017-07-14T13:42:01.408Z,105
2017-07-14T13:43:01.724Z,110
2017-07-14T13:44:01.089Z,110
2017-07-14T13:45:01.708Z,110
2017-07-14T13:46:01.701Z,110
2017-07-14T13:47:01.384Z,115
2017-07-14T13:48:01.688Z,120
2017-07-14T13:49:01.033Z,120
2017-07-14T13:50:01.029Z,110
2017-07-14T13:51:01.023Z,100
2017-07-14T13:52:01.700Z,95
2017-07-14T13:53:01.668Z,95
2017-07-14T13:54:01.326Z,100
2017-07-14T13:55:01.317Z,110
2017-07-14T13:56:01.313Z,120
2017-07-14T13:57:01.320Z,125
2017-07-14T13:58:01.295Z,125
2017-07-14T13:59:01.298Z,120
2017-07-14T14:00:00.962Z,110
2017-07-14T14:01:01.273Z,105
2017-07-14T14:02:01.268Z,105
2017-07-14T14:03:01.262Z,105
2017-07-14T14:04:01.570Z,100
2017-07-14T14:05:00.927Z,110
2017-07-14T14:06:01.241Z,120